sensor_id;sensor_type;location;lat;lon;timestamp;temperature;humidity
13721;DHT22;6932;51.438;5.470;2023-04-03T00:02:08;13.10;68.80
13721;DHT22;6932;51.438;5.470;2023-04-03T00:04:34;13.10;69.00
13721;DHT22;6932;51.438;5.470;2023-04-03T00:07:00;13.10;69.00
13721;DHT22;6932;51.438;5.470;2023-04-03T00:09:25;13.00;69.00
13721;DHT22;6932;51.438;5.470;2023-04-03T00:11:51;13.00;68.90
13721;DHT22;6932;51.438;5.470;2023-04-03T00:14:17;13.00;68.90
13721;DHT22;6932;51.438;5.470;2023-04-03T00:16:43;13.00;69.00
13721;DHT22;6932;51.438;5.470;2023-04-03T00:19:09;13.00;69.00
13721;DHT22;6932;51.438;5.470;2023-04-03T00:21:37;13.00;69.10
13721;DHT22;6932;51.438;5.470;2023-04-03T00:24:03;13.00;69.10
13721;DHT22;6932;51.438;5.470;2023-04-03T00:26:29;12.90;69.10
13721;DHT22;6932;51.438;5.470;2023-04-03T00:28:55;12.90;69.10
13721;DHT22;6932;51.438;5.470;2023-04-03T00:31:21;12.90;69.10
13721;DHT22;6932;51.438;5.470;2023-04-03T00:33:47;12.90;69.10
13721;DHT22;6932;51.438;5.470;2023-04-03T00:36:13;12.90;69.10
13721;DHT22;6932;51.438;5.470;2023-04-03T00:38:39;12.80;69.00
13721;DHT22;6932;51.438;5.470;2023-04-03T00:41:05;12.80;69.10
13721;DHT22;6932;51.438;5.470;2023-04-03T00:43:31;12.80;69.20
13721;DHT22;6932;51.438;5.470;2023-04-03T00:45:58;12.80;69.30
13721;DHT22;6932;51.438;5.470;2023-04-03T00:48:29;12.80;69.40
13721;DHT22;6932;51.438;5.470;2023-04-03T00:51:23;12.80;69.40
13721;DHT22;6932;51.438;5.470;2023-04-03T00:53:59;12.80;69.50
13721;DHT22;6932;51.438;5.470;2023-04-03T00:56:28;12.80;69.70
13721;DHT22;6932;51.438;5.470;2023-04-03T00:59:06;12.80;69.80
13721;DHT22;6932;51.438;5.470;2023-04-03T01:01:37;12.80;70.00
13721;DHT22;6932;51.438;5.470;2023-04-03T01:04:03;12.70;70.00
13721;DHT22;6932;51.438;5.470;2023-04-03T01:06:35;12.70;70.00
13721;DHT22;6932;51.438;5.470;2023-04-03T01:09:03;12.70;70.20
13721;DHT22;6932;51.438;5.470;2023-04-03T01:11:30;12.70;70.40
13721;DHT22;6932;51.438;5.470;2023-04-03T01:13:56;12.60;70.50
13721;DHT22;6932;51.438;5.470;2023-04-03T01:16:22;12.60;70.70
13721;DHT22;6932;51.438;5.470;2023-04-03T01:18:48;12.60;70.70
13721;DHT22;6932;51.438;5.470;2023-04-03T01:21:53;12.50;70.60
13721;DHT22;6932;51.438;5.470;2023-04-03T01:24:33;12.40;70.70
13721;DHT22;6932;51.438;5.470;2023-04-03T01:27:03;12.40;70.80
13721;DHT22;6932;51.438;5.470;2023-04-03T01:29:30;12.40;70.80
13721;DHT22;6932;51.438;5.470;2023-04-03T01:31:57;12.40;70.90
13721;DHT22;6932;51.438;5.470;2023-04-03T01:34:26;12.40;71.00
13721;DHT22;6932;51.438;5.470;2023-04-03T01:36:53;12.40;71.10
13721;DHT22;6932;51.438;5.470;2023-04-03T01:39:20;12.30;71.00
13721;DHT22;6932;51.438;5.470;2023-04-03T01:41:47;12.30;71.10
13721;DHT22;6932;51.438;5.470;2023-04-03T01:44:14;12.30;71.20
13721;DHT22;6932;51.438;5.470;2023-04-03T01:46:40;12.30;71.20
13721;DHT22;6932;51.438;5.470;2023-04-03T01:49:07;12.30;71.30
13721;DHT22;6932;51.438;5.470;2023-04-03T01:51:33;12.20;71.30
13721;DHT22;6932;51.438;5.470;2023-04-03T01:53:59;12.20;71.30
13721;DHT22;6932;51.438;5.470;2023-04-03T01:56:25;12.20;71.30
13721;DHT22;6932;51.438;5.470;2023-04-03T01:58:50;12.20;71.40
13721;DHT22;6932;51.438;5.470;2023-04-03T02:01:16;12.20;71.40
13721;DHT22;6932;51.438;5.470;2023-04-03T02:03:42;12.20;71.40
13721;DHT22;6932;51.438;5.470;2023-04-03T02:06:08;12.10;71.40
13721;DHT22;6932;51.438;5.470;2023-04-03T02:08:33;12.10;71.40
13721;DHT22;6932;51.438;5.470;2023-04-03T02:10:59;12.10;71.50
13721;DHT22;6932;51.438;5.470;2023-04-03T02:13:25;12.10;71.50
13721;DHT22;6932;51.438;5.470;2023-04-03T02:15:51;12.00;71.50
13721;DHT22;6932;51.438;5.470;2023-04-03T02:18:17;12.00;71.50
13721;DHT22;6932;51.438;5.470;2023-04-03T02:20:43;12.00;71.50
13721;DHT22;6932;51.438;5.470;2023-04-03T02:23:09;12.00;71.60
13721;DHT22;6932;51.438;5.470;2023-04-03T02:25:35;12.00;71.60
13721;DHT22;6932;51.438;5.470;2023-04-03T02:28:01;11.90;71.60
13721;DHT22;6932;51.438;5.470;2023-04-03T02:30:27;11.90;71.60
13721;DHT22;6932;51.438;5.470;2023-04-03T02:32:53;11.90;72.30
13721;DHT22;6932;51.438;5.470;2023-04-03T02:35:19;11.90;71.60
13721;DHT22;6932;51.438;5.470;2023-04-03T02:37:45;11.80;71.60
13721;DHT22;6932;51.438;5.470;2023-04-03T02:40:11;11.80;71.60
13721;DHT22;6932;51.438;5.470;2023-04-03T02:42:37;11.80;71.70
13721;DHT22;6932;51.438;5.470;2023-04-03T02:45:03;11.80;71.70
13721;DHT22;6932;51.438;5.470;2023-04-03T02:47:29;11.80;71.70
13721;DHT22;6932;51.438;5.470;2023-04-03T02:49:55;11.70;71.80
13721;DHT22;6932;51.438;5.470;2023-04-03T02:52:21;11.70;71.80
13721;DHT22;6932;51.438;5.470;2023-04-03T02:54:47;11.70;71.90
13721;DHT22;6932;51.438;5.470;2023-04-03T02:57:13;11.70;71.90
13721;DHT22;6932;51.438;5.470;2023-04-03T02:59:39;11.60;71.90
13721;DHT22;6932;51.438;5.470;2023-04-03T03:02:07;11.60;72.00
13721;DHT22;6932;51.438;5.470;2023-04-03T03:04:34;11.60;72.10
13721;DHT22;6932;51.438;5.470;2023-04-03T03:07:00;11.60;72.10
13721;DHT22;6932;51.438;5.470;2023-04-03T03:09:26;11.50;72.10
13721;DHT22;6932;51.438;5.470;2023-04-03T03:11:52;11.50;72.10
13721;DHT22;6932;51.438;5.470;2023-04-03T03:14:18;11.50;72.10
13721;DHT22;6932;51.438;5.470;2023-04-03T03:19:56;11.40;72.20
13721;DHT22;6932;51.438;5.470;2023-04-03T03:22:22;11.50;72.30
13721;DHT22;6932;51.438;5.470;2023-04-03T03:24:47;11.40;72.30
13721;DHT22;6932;51.438;5.470;2023-04-03T03:27:13;11.40;72.40
13721;DHT22;6932;51.438;5.470;2023-04-03T03:29:41;11.40;72.40
13721;DHT22;6932;51.438;5.470;2023-04-03T03:32:08;11.40;72.40
13721;DHT22;6932;51.438;5.470;2023-04-03T03:34:33;11.30;72.40
13721;DHT22;6932;51.438;5.470;2023-04-03T03:36:59;11.30;72.40
13721;DHT22;6932;51.438;5.470;2023-04-03T03:39:25;11.30;72.40
13721;DHT22;6932;51.438;5.470;2023-04-03T03:41:52;11.30;72.40
13721;DHT22;6932;51.438;5.470;2023-04-03T03:44:19;11.30;72.40
13721;DHT22;6932;51.438;5.470;2023-04-03T03:46:45;11.30;72.40
13721;DHT22;6932;51.438;5.470;2023-04-03T03:49:11;11.20;72.40
13721;DHT22;6932;51.438;5.470;2023-04-03T03:51:38;11.30;72.40
13721;DHT22;6932;51.438;5.470;2023-04-03T03:54:05;11.20;72.40
13721;DHT22;6932;51.438;5.470;2023-04-03T03:56:32;11.20;72.40
13721;DHT22;6932;51.438;5.470;2023-04-03T03:58:58;11.20;72.40
13721;DHT22;6932;51.438;5.470;2023-04-03T04:01:24;11.20;72.40
13721;DHT22;6932;51.438;5.470;2023-04-03T04:03:50;11.20;72.40
13721;DHT22;6932;51.438;5.470;2023-04-03T04:06:16;11.20;72.40
13721;DHT22;6932;51.438;5.470;2023-04-03T04:08:42;11.20;72.30
13721;DHT22;6932;51.438;5.470;2023-04-03T04:11:09;11.20;72.30
13721;DHT22;6932;51.438;5.470;2023-04-03T04:13:35;11.10;72.20
13721;DHT22;6932;51.438;5.470;2023-04-03T04:16:00;11.10;72.20
13721;DHT22;6932;51.438;5.470;2023-04-03T04:18:26;11.20;72.20
13721;DHT22;6932;51.438;5.470;2023-04-03T04:20:52;11.10;72.10
13721;DHT22;6932;51.438;5.470;2023-04-03T04:23:18;11.10;72.10
13721;DHT22;6932;51.438;5.470;2023-04-03T04:25:49;11.10;72.10
13721;DHT22;6932;51.438;5.470;2023-04-03T04:28:15;11.10;72.10
13721;DHT22;6932;51.438;5.470;2023-04-03T04:30:41;11.10;72.00
13721;DHT22;6932;51.438;5.470;2023-04-03T04:33:07;11.10;72.00
13721;DHT22;6932;51.438;5.470;2023-04-03T04:35:33;11.10;72.00
13721;DHT22;6932;51.438;5.470;2023-04-03T04:37:59;11.10;72.00
13721;DHT22;6932;51.438;5.470;2023-04-03T04:40:26;11.10;71.90
13721;DHT22;6932;51.438;5.470;2023-04-03T04:42:51;11.10;71.90
13721;DHT22;6932;51.438;5.470;2023-04-03T04:45:17;11.10;71.90
13721;DHT22;6932;51.438;5.470;2023-04-03T04:47:44;11.10;71.90
13721;DHT22;6932;51.438;5.470;2023-04-03T04:50:10;11.00;71.90
13721;DHT22;6932;51.438;5.470;2023-04-03T04:52:36;11.00;71.90
13721;DHT22;6932;51.438;5.470;2023-04-03T04:55:03;11.00;71.90
13721;DHT22;6932;51.438;5.470;2023-04-03T04:57:29;11.00;71.90
13721;DHT22;6932;51.438;5.470;2023-04-03T04:59:55;11.00;71.90
13721;DHT22;6932;51.438;5.470;2023-04-03T05:02:21;11.00;71.90
13721;DHT22;6932;51.438;5.470;2023-04-03T05:04:47;11.00;71.90
13721;DHT22;6932;51.438;5.470;2023-04-03T05:07:15;11.00;71.90
13721;DHT22;6932;51.438;5.470;2023-04-03T05:09:41;10.90;71.80
13721;DHT22;6932;51.438;5.470;2023-04-03T05:12:07;10.90;71.90
13721;DHT22;6932;51.438;5.470;2023-04-03T05:14:33;10.90;71.90
13721;DHT22;6932;51.438;5.470;2023-04-03T05:16:59;10.90;71.90
13721;DHT22;6932;51.438;5.470;2023-04-03T05:19:24;10.90;72.00
13721;DHT22;6932;51.438;5.470;2023-04-03T05:21:50;10.80;71.90
13721;DHT22;6932;51.438;5.470;2023-04-03T05:24:16;10.80;72.00
13721;DHT22;6932;51.438;5.470;2023-04-03T05:26:42;10.80;72.00
13721;DHT22;6932;51.438;5.470;2023-04-03T05:29:09;10.80;72.00
13721;DHT22;6932;51.438;5.470;2023-04-03T05:31:35;10.80;72.10
13721;DHT22;6932;51.438;5.470;2023-04-03T05:34:01;10.80;72.10
13721;DHT22;6932;51.438;5.470;2023-04-03T05:36:27;10.80;72.20
13721;DHT22;6932;51.438;5.470;2023-04-03T05:38:53;10.80;72.20
13721;DHT22;6932;51.438;5.470;2023-04-03T05:41:21;10.80;72.40
13721;DHT22;6932;51.438;5.470;2023-04-03T05:43:47;10.80;73.10
13721;DHT22;6932;51.438;5.470;2023-04-03T05:46:16;10.80;72.50
13721;DHT22;6932;51.438;5.470;2023-04-03T05:48:44;10.90;72.50
13721;DHT22;6932;51.438;5.470;2023-04-03T05:51:19;10.90;72.50
13721;DHT22;6932;51.438;5.470;2023-04-03T05:53:51;11.00;72.50
13721;DHT22;6932;51.438;5.470;2023-04-03T05:56:20;11.00;72.50
13721;DHT22;6932;51.438;5.470;2023-04-03T05:58:46;11.10;72.40
13721;DHT22;6932;51.438;5.470;2023-04-03T06:01:12;11.10;72.40
13721;DHT22;6932;51.438;5.470;2023-04-03T06:03:38;11.20;72.30
13721;DHT22;6932;51.438;5.470;2023-04-03T06:06:05;11.30;72.20
13721;DHT22;6932;51.438;5.470;2023-04-03T06:08:31;11.30;72.10
13721;DHT22;6932;51.438;5.470;2023-04-03T06:10:58;11.40;72.00
13721;DHT22;6932;51.438;5.470;2023-04-03T06:13:23;11.40;71.70
13721;DHT22;6932;51.438;5.470;2023-04-03T06:15:49;11.50;71.60
13721;DHT22;6932;51.438;5.470;2023-04-03T06:25:37;11.80;71.00
13721;DHT22;6932;51.438;5.470;2023-04-03T06:28:02;11.90;70.70
13721;DHT22;6932;51.438;5.470;2023-04-03T06:30:28;12.00;70.20
13721;DHT22;6932;51.438;5.470;2023-04-03T06:32:54;12.00;70.00
13721;DHT22;6932;51.438;5.470;2023-04-03T06:35:21;12.00;69.60
13721;DHT22;6932;51.438;5.470;2023-04-03T06:37:49;12.00;69.40
13721;DHT22;6932;51.438;5.470;2023-04-03T06:40:23;12.00;69.30
13721;DHT22;6932;51.438;5.470;2023-04-03T06:42:50;12.00;69.10
13721;DHT22;6932;51.438;5.470;2023-04-03T06:45:16;12.00;69.10
13721;DHT22;6932;51.438;5.470;2023-04-03T06:47:43;11.90;69.00
13721;DHT22;6932;51.438;5.470;2023-04-03T06:50:10;11.90;69.00
13721;DHT22;6932;51.438;5.470;2023-04-03T06:52:39;11.80;69.80
13721;DHT22;6932;51.438;5.470;2023-04-03T06:55:06;11.80;69.00
13721;DHT22;6932;51.438;5.470;2023-04-03T06:57:33;11.70;68.90
13721;DHT22;6932;51.438;5.470;2023-04-03T06:59:59;11.60;68.80
13721;DHT22;6932;51.438;5.470;2023-04-03T07:02:25;11.50;68.90
13721;DHT22;6932;51.438;5.470;2023-04-03T07:04:51;11.50;69.50
13721;DHT22;6932;51.438;5.470;2023-04-03T07:07:17;11.40;70.20
13721;DHT22;6932;51.438;5.470;2023-04-03T07:09:43;11.40;70.70
13721;DHT22;6932;51.438;5.470;2023-04-03T07:12:08;11.50;71.00
13721;DHT22;6932;51.438;5.470;2023-04-03T07:14:34;11.60;71.00
13721;DHT22;6932;51.438;5.470;2023-04-03T07:20:41;12.00;70.80
13721;DHT22;6932;51.438;5.470;2023-04-03T07:23:07;12.40;70.40
13721;DHT22;6932;51.438;5.470;2023-04-03T07:25:32;12.50;70.10
13721;DHT22;6932;51.438;5.470;2023-04-03T07:27:59;12.70;69.90
13721;DHT22;6932;51.438;5.470;2023-04-03T07:30:24;12.90;69.20
13721;DHT22;6932;51.438;5.470;2023-04-03T07:32:51;13.10;68.90
13721;DHT22;6932;51.438;5.470;2023-04-03T07:42:47;13.70;67.60
13721;DHT22;6932;51.438;5.470;2023-04-03T07:45:12;13.80;66.70
13721;DHT22;6932;51.438;5.470;2023-04-03T07:47:38;13.90;66.70
13721;DHT22;6932;51.438;5.470;2023-04-03T07:50:05;14.00;66.60
13721;DHT22;6932;51.438;5.470;2023-04-03T07:52:31;14.10;66.30
13721;DHT22;6932;51.438;5.470;2023-04-03T07:54:57;14.20;66.00
13721;DHT22;6932;51.438;5.470;2023-04-03T07:57:22;14.30;65.70
13721;DHT22;6932;51.438;5.470;2023-04-03T07:59:48;14.40;65.40
13721;DHT22;6932;51.438;5.470;2023-04-03T08:02:14;14.50;64.80
13721;DHT22;6932;51.438;5.470;2023-04-03T08:04:39;14.60;64.50
13721;DHT22;6932;51.438;5.470;2023-04-03T08:07:05;14.70;64.30
13721;DHT22;6932;51.438;5.470;2023-04-03T08:09:31;14.70;63.90
13721;DHT22;6932;51.438;5.470;2023-04-03T08:11:57;14.80;63.60
13721;DHT22;6932;51.438;5.470;2023-04-03T08:14:24;14.90;63.10
13721;DHT22;6932;51.438;5.470;2023-04-03T08:16:50;14.90;62.80
13721;DHT22;6932;51.438;5.470;2023-04-03T08:19:16;15.00;62.80
13721;DHT22;6932;51.438;5.470;2023-04-03T08:21:44;15.00;62.20
13721;DHT22;6932;51.438;5.470;2023-04-03T08:24:10;15.10;61.50
13721;DHT22;6932;51.438;5.470;2023-04-03T08:26:36;15.10;61.30
13721;DHT22;6932;51.438;5.470;2023-04-03T08:29:03;15.20;61.10
13721;DHT22;6932;51.438;5.470;2023-04-03T08:31:29;15.20;61.20
13721;DHT22;6932;51.438;5.470;2023-04-03T08:34:07;15.20;61.20
13721;DHT22;6932;51.438;5.470;2023-04-03T08:36:33;15.30;61.10
13721;DHT22;6932;51.438;5.470;2023-04-03T08:38:59;15.40;60.90
13721;DHT22;6932;51.438;5.470;2023-04-03T08:41:29;15.40;61.20
13721;DHT22;6932;51.438;5.470;2023-04-03T08:44:03;15.50;61.00
13721;DHT22;6932;51.438;5.470;2023-04-03T08:50:00;15.70;60.20
13721;DHT22;6932;51.438;5.470;2023-04-03T08:52:37;15.80;59.40
13721;DHT22;6932;51.438;5.470;2023-04-03T08:57:40;16.00;58.70
13721;DHT22;6932;51.438;5.470;2023-04-03T09:00:21;16.00;58.30
13721;DHT22;6932;51.438;5.470;2023-04-03T09:02:55;16.10;58.30
13721;DHT22;6932;51.438;5.470;2023-04-03T09:05:36;16.10;57.70
13721;DHT22;6932;51.438;5.470;2023-04-03T09:08:32;16.20;57.40
13721;DHT22;6932;51.438;5.470;2023-04-03T09:11:08;16.20;56.80
13721;DHT22;6932;51.438;5.470;2023-04-03T09:19:33;16.40;54.50
13721;DHT22;6932;51.438;5.470;2023-04-03T09:22:26;16.40;53.80
13721;DHT22;6932;51.438;5.470;2023-04-03T09:25:17;16.50;53.90
13721;DHT22;6932;51.438;5.470;2023-04-03T09:28:03;16.50;53.30
13721;DHT22;6932;51.438;5.470;2023-04-03T09:41:38;16.60;48.90
13721;DHT22;6932;51.438;5.470;2023-04-03T09:44:20;16.60;48.20
13721;DHT22;6932;51.438;5.470;2023-04-03T09:46:51;16.60;48.00
13721;DHT22;6932;51.438;5.470;2023-04-03T09:49:18;16.60;48.20
13721;DHT22;6932;51.438;5.470;2023-04-03T09:51:45;16.60;48.00
13721;DHT22;6932;51.438;5.470;2023-04-03T09:56:56;16.60;47.70
13721;DHT22;6932;51.438;5.470;2023-04-03T09:59:25;16.70;46.80
13721;DHT22;6932;51.438;5.470;2023-04-03T10:05:41;16.70;46.40
13721;DHT22;6932;51.438;5.470;2023-04-03T10:08:19;16.70;45.60
13721;DHT22;6932;51.438;5.470;2023-04-03T10:11:15;16.70;44.70
13721;DHT22;6932;51.438;5.470;2023-04-03T10:13:53;16.70;45.50
13721;DHT22;6932;51.438;5.470;2023-04-03T10:17:53;16.70;45.40
13721;DHT22;6932;51.438;5.470;2023-04-03T10:19:57;16.70;45.80
13721;DHT22;6932;51.438;5.470;2023-04-03T10:22:42;16.70;45.50
13721;DHT22;6932;51.438;5.470;2023-04-03T11:00:19;16.60;43.80
13721;DHT22;6932;51.438;5.470;2023-04-03T11:02:59;16.60;42.60
13721;DHT22;6932;51.438;5.470;2023-04-03T11:05:42;16.50;42.90
13721;DHT22;6932;51.438;5.470;2023-04-03T11:08:38;16.50;42.80
13721;DHT22;6932;51.438;5.470;2023-04-03T11:11:15;16.50;42.90
13721;DHT22;6932;51.438;5.470;2023-04-03T11:20:17;16.50;41.90
13721;DHT22;6932;51.438;5.470;2023-04-03T11:25:38;16.50;41.70
13721;DHT22;6932;51.438;5.470;2023-04-03T11:28:13;16.40;41.70
13721;DHT22;6932;51.438;5.470;2023-04-03T11:36:31;16.60;43.20
13721;DHT22;6932;51.438;5.470;2023-04-03T11:39:24;16.60;42.80
13721;DHT22;6932;51.438;5.470;2023-04-03T11:41:52;16.70;41.90
13721;DHT22;6932;51.438;5.470;2023-04-03T11:44:36;16.80;41.60
13721;DHT22;6932;51.438;5.470;2023-04-03T11:47:05;16.80;42.00
13721;DHT22;6932;51.438;5.470;2023-04-03T11:49:59;16.90;41.80
13721;DHT22;6932;51.438;5.470;2023-04-03T12:07:29;16.70;41.90
13721;DHT22;6932;51.438;5.470;2023-04-03T12:09:58;16.70;41.90
13721;DHT22;6932;51.438;5.470;2023-04-03T12:12:34;16.60;41.50
13721;DHT22;6932;51.438;5.470;2023-04-03T12:15:20;16.60;41.00
13721;DHT22;6932;51.438;5.470;2023-04-03T12:18:40;16.60;40.70
13721;DHT22;6932;51.438;5.470;2023-04-03T12:21:10;16.50;40.80
13721;DHT22;6932;51.438;5.470;2023-04-03T12:47:01;16.30;40.80
13721;DHT22;6932;51.438;5.470;2023-04-03T12:49:41;16.40;40.90
13721;DHT22;6932;51.438;5.470;2023-04-03T12:52:37;16.40;41.20
13721;DHT22;6932;51.438;5.470;2023-04-03T12:55:20;16.40;41.30
13721;DHT22;6932;51.438;5.470;2023-04-03T12:57:46;16.30;41.50
13721;DHT22;6932;51.438;5.470;2023-04-03T13:00:33;16.30;41.90
13721;DHT22;6932;51.438;5.470;2023-04-03T13:06:43;16.30;42.70
13721;DHT22;6932;51.438;5.470;2023-04-03T13:09:30;16.30;42.60
13721;DHT22;6932;51.438;5.470;2023-04-03T13:12:02;16.20;43.00
13721;DHT22;6932;51.438;5.470;2023-04-03T13:14:35;16.20;43.10
13721;DHT22;6932;51.438;5.470;2023-04-03T13:17:14;16.20;43.40
13721;DHT22;6932;51.438;5.470;2023-04-03T13:19:42;16.20;43.50
13721;DHT22;6932;51.438;5.470;2023-04-03T13:22:36;16.20;43.70
13721;DHT22;6932;51.438;5.470;2023-04-03T13:25:16;16.20;43.50
13721;DHT22;6932;51.438;5.470;2023-04-03T13:27:43;16.20;43.30
13721;DHT22;6932;51.438;5.470;2023-04-03T13:30:38;16.20;43.50
13721;DHT22;6932;51.438;5.470;2023-04-03T13:33:20;16.20;43.70
13721;DHT22;6932;51.438;5.470;2023-04-03T13:35:58;16.20;43.80
13721;DHT22;6932;51.438;5.470;2023-04-03T13:38:30;16.20;43.80
13721;DHT22;6932;51.438;5.470;2023-04-03T13:41:02;16.20;43.90
13721;DHT22;6932;51.438;5.470;2023-04-03T13:43:34;16.20;43.80
13721;DHT22;6932;51.438;5.470;2023-04-03T13:46:24;16.20;43.90
13721;DHT22;6932;51.438;5.470;2023-04-03T13:48:55;16.20;43.70
13721;DHT22;6932;51.438;5.470;2023-04-03T13:51:27;16.30;43.50
13721;DHT22;6932;51.438;5.470;2023-04-03T13:53:58;16.30;43.90
13721;DHT22;6932;51.438;5.470;2023-04-03T13:56:34;16.30;43.80
13721;DHT22;6932;51.438;5.470;2023-04-03T14:09:53;16.20;44.50
13721;DHT22;6932;51.438;5.470;2023-04-03T14:12:26;16.20;44.00
13721;DHT22;6932;51.438;5.470;2023-04-03T14:14:54;16.20;44.00
13721;DHT22;6932;51.438;5.470;2023-04-03T14:17:25;16.20;44.20
13721;DHT22;6932;51.438;5.470;2023-04-03T14:19:53;16.20;44.60
13721;DHT22;6932;51.438;5.470;2023-04-03T14:22:30;16.20;44.90
13721;DHT22;6932;51.438;5.470;2023-04-03T14:24:58;16.10;44.60
13721;DHT22;6932;51.438;5.470;2023-04-03T14:53:12;16.20;45.20
13721;DHT22;6932;51.438;5.470;2023-04-03T14:55:44;16.20;45.20
13721;DHT22;6932;51.438;5.470;2023-04-03T14:58:16;16.20;45.20
13721;DHT22;6932;51.438;5.470;2023-04-03T15:00:44;16.20;45.50
13721;DHT22;6932;51.438;5.470;2023-04-03T15:03:19;16.10;45.50
13721;DHT22;6932;51.438;5.470;2023-04-03T15:05:47;16.10;45.40
13721;DHT22;6932;51.438;5.470;2023-04-03T15:08:21;16.20;45.40
13721;DHT22;6932;51.438;5.470;2023-04-03T15:10:50;16.20;44.90
13721;DHT22;6932;51.438;5.470;2023-04-03T15:13:21;16.20;45.30
13721;DHT22;6932;51.438;5.470;2023-04-03T15:15:49;16.10;45.30
13721;DHT22;6932;51.438;5.470;2023-04-03T15:18:22;16.10;45.40
13721;DHT22;6932;51.438;5.470;2023-04-03T15:20:52;16.10;45.60
13721;DHT22;6932;51.438;5.470;2023-04-03T15:23:18;16.10;45.80
13721;DHT22;6932;51.438;5.470;2023-04-03T15:25:46;16.10;45.70
13721;DHT22;6932;51.438;5.470;2023-04-03T15:31:32;15.90;45.60
13721;DHT22;6932;51.438;5.470;2023-04-03T15:33:58;15.80;46.00
13721;DHT22;6932;51.438;5.470;2023-04-03T15:36:24;15.60;46.10
13721;DHT22;6932;51.438;5.470;2023-04-03T15:38:50;15.50;46.10
13721;DHT22;6932;51.438;5.470;2023-04-03T15:41:16;15.40;46.10
13721;DHT22;6932;51.438;5.470;2023-04-03T15:43:42;15.30;45.80
13721;DHT22;6932;51.438;5.470;2023-04-03T15:46:08;15.20;46.20
13721;DHT22;6932;51.438;5.470;2023-04-03T15:48:35;15.10;46.70
13721;DHT22;6932;51.438;5.470;2023-04-03T15:51:02;15.20;46.80
13721;DHT22;6932;51.438;5.470;2023-04-03T15:53:27;15.20;46.90
13721;DHT22;6932;51.438;5.470;2023-04-03T15:55:53;15.20;47.20
13721;DHT22;6932;51.438;5.470;2023-04-03T15:58:19;15.30;47.40
13721;DHT22;6932;51.438;5.470;2023-04-03T16:00:45;15.40;47.50
13721;DHT22;6932;51.438;5.470;2023-04-03T16:03:14;15.40;47.50
13721;DHT22;6932;51.438;5.470;2023-04-03T16:09:10;15.50;47.40
13721;DHT22;6932;51.438;5.470;2023-04-03T16:11:37;15.60;47.50
13721;DHT22;6932;51.438;5.470;2023-04-03T16:14:06;15.70;47.60
13721;DHT22;6932;51.438;5.470;2023-04-03T16:16:32;15.70;47.70
13721;DHT22;6932;51.438;5.470;2023-04-03T16:18:58;15.70;47.40
13721;DHT22;6932;51.438;5.470;2023-04-03T16:21:24;15.80;47.30
13721;DHT22;6932;51.438;5.470;2023-04-03T16:23:50;15.80;47.20
13721;DHT22;6932;51.438;5.470;2023-04-03T16:26:16;15.90;46.90
13721;DHT22;6932;51.438;5.470;2023-04-03T16:28:43;15.90;46.60
13721;DHT22;6932;51.438;5.470;2023-04-03T16:31:09;15.90;46.70
13721;DHT22;6932;51.438;5.470;2023-04-03T16:33:35;15.90;46.80
13721;DHT22;6932;51.438;5.470;2023-04-03T16:36:03;15.90;46.90
13721;DHT22;6932;51.438;5.470;2023-04-03T16:38:30;15.90;47.10
13721;DHT22;6932;51.438;5.470;2023-04-03T16:40:56;15.90;47.20
13721;DHT22;6932;51.438;5.470;2023-04-03T16:43:25;15.90;47.30
13721;DHT22;6932;51.438;5.470;2023-04-03T16:49:42;15.90;47.50
13721;DHT22;6932;51.438;5.470;2023-04-03T16:52:08;15.90;47.50
13721;DHT22;6932;51.438;5.470;2023-04-03T16:54:34;15.90;47.60
13721;DHT22;6932;51.438;5.470;2023-04-03T16:57:00;15.90;47.60
13721;DHT22;6932;51.438;5.470;2023-04-03T16:59:26;15.80;47.70
13721;DHT22;6932;51.438;5.470;2023-04-03T17:01:51;15.80;47.70
13721;DHT22;6932;51.438;5.470;2023-04-03T17:04:17;15.70;48.00
13721;DHT22;6932;51.438;5.470;2023-04-03T17:06:43;15.50;48.10
13721;DHT22;6932;51.438;5.470;2023-04-03T17:09:09;15.50;48.50
13721;DHT22;6932;51.438;5.470;2023-04-03T17:11:35;15.40;48.70
13721;DHT22;6932;51.438;5.470;2023-04-03T17:14:01;15.30;48.80
13721;DHT22;6932;51.438;5.470;2023-04-03T17:16:28;15.30;49.00
13721;DHT22;6932;51.438;5.470;2023-04-03T17:18:54;15.30;49.00
13721;DHT22;6932;51.438;5.470;2023-04-03T17:21:21;15.40;49.10
13721;DHT22;6932;51.438;5.470;2023-04-03T17:23:51;15.40;49.00
13721;DHT22;6932;51.438;5.470;2023-04-03T17:30:04;15.40;49.00
13721;DHT22;6932;51.438;5.470;2023-04-03T17:32:31;15.50;48.90
13721;DHT22;6932;51.438;5.470;2023-04-03T17:34:56;15.40;49.00
13721;DHT22;6932;51.438;5.470;2023-04-03T17:37:22;15.40;48.90
13721;DHT22;6932;51.438;5.470;2023-04-03T17:39:48;15.40;48.90
13721;DHT22;6932;51.438;5.470;2023-04-03T17:42:14;15.40;48.90
13721;DHT22;6932;51.438;5.470;2023-04-03T17:44:40;15.40;49.00
13721;DHT22;6932;51.438;5.470;2023-04-03T17:47:06;15.40;49.00
13721;DHT22;6932;51.438;5.470;2023-04-03T17:49:31;15.40;49.00
13721;DHT22;6932;51.438;5.470;2023-04-03T17:51:58;15.40;49.00
13721;DHT22;6932;51.438;5.470;2023-04-03T17:54:24;15.40;49.00
13721;DHT22;6932;51.438;5.470;2023-04-03T17:56:49;15.30;49.00
13721;DHT22;6932;51.438;5.470;2023-04-03T17:59:16;15.30;49.00
13721;DHT22;6932;51.438;5.470;2023-04-03T18:01:44;15.30;49.20
13721;DHT22;6932;51.438;5.470;2023-04-03T18:07:53;15.20;49.30
13721;DHT22;6932;51.438;5.470;2023-04-03T18:10:19;15.20;49.30
13721;DHT22;6932;51.438;5.470;2023-04-03T18:12:45;15.20;49.40
13721;DHT22;6932;51.438;5.470;2023-04-03T18:15:11;15.20;49.50
13721;DHT22;6932;51.438;5.470;2023-04-03T18:17:37;15.10;49.50
13721;DHT22;6932;51.438;5.470;2023-04-03T18:20:04;15.10;49.60
13721;DHT22;6932;51.438;5.470;2023-04-03T18:22:31;15.10;49.70
13721;DHT22;6932;51.438;5.470;2023-04-03T18:24:58;15.10;49.70
13721;DHT22;6932;51.438;5.470;2023-04-03T18:27:25;15.00;49.70
13721;DHT22;6932;51.438;5.470;2023-04-03T18:29:54;15.00;49.80
13721;DHT22;6932;51.438;5.470;2023-04-03T18:32:24;15.00;49.90
13721;DHT22;6932;51.438;5.470;2023-04-03T18:34:50;15.00;50.00
13721;DHT22;6932;51.438;5.470;2023-04-03T18:37:16;14.90;50.10
13721;DHT22;6932;51.438;5.470;2023-04-03T18:39:43;14.90;50.30
13721;DHT22;6932;51.438;5.470;2023-04-03T18:42:13;14.90;50.40
13721;DHT22;6932;51.438;5.470;2023-04-03T18:44:43;14.90;50.70
13721;DHT22;6932;51.438;5.470;2023-04-03T18:47:10;14.80;50.70
13721;DHT22;6932;51.438;5.470;2023-04-03T18:49:39;14.80;50.90
13721;DHT22;6932;51.438;5.470;2023-04-03T18:52:06;14.80;51.00
13721;DHT22;6932;51.438;5.470;2023-04-03T18:54:32;14.80;51.10
13721;DHT22;6932;51.438;5.470;2023-04-03T18:56:58;14.70;51.20
13721;DHT22;6932;51.438;5.470;2023-04-03T19:10:27;14.60;51.60
13721;DHT22;6932;51.438;5.470;2023-04-03T19:12:53;14.50;51.60
13721;DHT22;6932;51.438;5.470;2023-04-03T19:15:20;14.50;51.70
13721;DHT22;6932;51.438;5.470;2023-04-03T19:17:49;14.40;51.70
13721;DHT22;6932;51.438;5.470;2023-04-03T19:20:15;14.40;51.70
13721;DHT22;6932;51.438;5.470;2023-04-03T19:22:42;14.40;51.80
13721;DHT22;6932;51.438;5.470;2023-04-03T19:25:09;14.30;51.80
13721;DHT22;6932;51.438;5.470;2023-04-03T19:27:37;14.40;51.80